Time;durP1;ratioP1;P1;durP2;ratioP2;P2;SDS_P1;SDS_P2;PMS_P1;PMS_P2;Temp;Humidity;BMP_temperature;BMP_pressure;BME280_temperature;BME280_humidity;BME280_pressure;Samples;Min_cycle;Max_cycle;Signal;HPM_P1;HPM_P2
2023/09/30 00:00:47;;;;;;;9.98;1.45;;;20.00;92.30;20.00;100983.00;;;;4988439;27;89016;-64
2023/09/30 00:03:12;;;;;;;4.55;1.88;;;19.90;92.40;20.00;100994.00;;;;4988459;28;118082;-68
2023/09/30 00:05:41;;;;;;;1.73;1.27;;;19.90;92.80;20.00;100993.00;;;;4988886;28;116010;-66
2023/09/30 00:08:06;;;;;;;2.83;1.73;;;19.90;93.00;20.00;100998.00;;;;4988998;27;109931;-65
2023/09/30 00:10:32;;;;;;;4.07;2.28;;;19.90;93.50;20.00;101001.00;;;;4990374;28;89224;-66
2023/09/30 00:12:58;;;;;;;1.77;1.13;;;19.90;93.70;20.00;100994.00;;;;4990842;28;94135;-66
2023/09/30 00:15:24;;;;;;;3.60;1.23;;;19.90;94.10;20.00;100996.00;;;;4991590;27;87995;-67
2023/09/30 00:17:50;;;;;;;1.92;1.13;;;19.90;94.80;20.10;101007.00;;;;4991538;27;98568;-64
2023/09/30 00:20:17;;;;;;;1.85;0.73;;;19.90;94.90;20.10;101017.00;;;;4989201;27;87873;-66
2023/09/30 00:22:42;;;;;;;1.02;0.52;;;20.00;95.60;20.10;101004.00;;;;4988066;28;87974;-67
2023/09/30 00:25:08;;;;;;;1.33;1.00;;;19.90;95.90;20.00;101014.00;;;;4990174;28;90492;-66
2023/09/30 00:27:34;;;;;;;5.00;0.80;;;19.90;96.80;20.00;101021.00;;;;4991820;28;111002;-68
2023/09/30 00:30:00;;;;;;;0.40;0.40;;;19.90;98.10;19.90;101023.00;;;;4989151;28;108864;-66
2023/09/30 00:32:25;;;;;;;1.95;0.75;;;19.80;98.70;19.80;101035.00;;;;4990697;27;88033;-66
2023/09/30 00:34:52;;;;;;;2.00;0.55;;;19.70;98.80;19.70;101036.00;;;;4992185;28;116988;-65
2023/09/30 00:37:18;;;;;;;1.15;1.00;;;19.60;99.30;19.60;101041.00;;;;4993517;28;87854;-66
2023/09/30 00:39:44;;;;;;;1.55;0.80;;;19.50;99.40;19.50;101050.00;;;;4991933;27;108187;-67
2023/09/30 00:42:10;;;;;;;1.45;0.95;;;19.40;99.50;19.40;101048.00;;;;4997294;27;88330;-66
2023/09/30 00:44:36;;;;;;;3.50;0.90;;;19.30;99.80;19.30;101051.00;;;;4991907;27;102687;-66
2023/09/30 00:47:02;;;;;;;0.75;0.75;;;19.20;99.90;19.20;101055.00;;;;4990953;27;110597;-66
2023/09/30 00:49:29;;;;;;;1.15;0.77;;;19.10;99.90;19.10;101049.00;;;;4993166;27;102633;-68
2023/09/30 00:51:55;;;;;;;0.70;0.68;;;19.30;99.90;19.10;101057.00;;;;4991780;28;116185;-66
2023/09/30 00:54:24;;;;;;;0.50;0.50;;;19.00;99.90;19.00;101064.00;;;;4976186;28;96503;-66
2023/09/30 00:56:52;;;;;;;0.65;0.40;;;18.90;99.90;18.90;101061.00;;;;4969984;27;88011;-66
2023/09/30 00:59:19;;;;;;;0.20;0.20;;;18.80;99.90;18.80;101068.00;;;;4975949;28;89159;-65
2023/09/30 01:01:46;;;;;;;0.35;0.35;;;18.70;99.90;18.70;101067.00;;;;4978274;28;89082;-65
2023/09/30 01:04:12;;;;;;;0.25;0.25;;;18.60;99.50;18.60;101074.00;;;;4993774;27;88994;-65
2023/09/30 01:06:38;;;;;;;0.45;0.40;;;18.50;99.10;18.50;101064.00;;;;4991582;28;88028;-66
2023/09/30 01:09:04;;;;;;;1.08;0.60;;;18.40;98.90;18.50;101071.00;;;;4992638;28;87920;-65
2023/09/30 01:11:30;;;;;;;0.70;0.70;;;18.40;98.90;18.40;101071.00;;;;4993235;28;88561;-66
2023/09/30 01:13:57;;;;;;;2.28;0.77;;;18.40;98.90;18.40;101071.00;;;;4988129;28;89317;-66
2023/09/30 01:16:23;;;;;;;1.98;0.60;;;18.30;98.90;18.30;101085.00;;;;4989368;28;87266;-66
2023/09/30 01:18:49;;;;;;;1.80;0.73;;;18.20;98.80;18.30;101083.00;;;;4986545;28;89540;-65
2023/09/30 01:21:15;;;;;;;1.65;0.63;;;18.20;98.90;18.20;101086.00;;;;4973339;28;96280;-65
2023/09/30 01:23:41;;;;;;;0.40;0.32;;;18.20;98.90;18.20;101070.00;;;;4990996;27;117089;-65
2023/09/30 01:26:12;;;;;;;2.00;0.88;;;18.10;98.90;18.20;101075.00;;;;4993755;28;87924;-66
2023/09/30 01:28:38;;;;;;;3.45;0.82;;;18.10;98.90;18.10;101079.00;;;;4990772;28;87722;-67
2023/09/30 01:31:04;;;;;;;0.63;0.50;;;18.00;99.00;18.10;101078.00;;;;4989766;28;106205;-66
2023/09/30 01:33:30;;;;;;;0.40;0.40;;;18.00;98.90;18.00;101090.00;;;;4988797;27;87839;-68
2023/09/30 01:35:56;;;;;;;1.83;0.63;;;18.00;99.00;18.00;101087.00;;;;4986042;27;87797;-66
2023/09/30 01:38:22;;;;;;;0.43;0.40;;;17.90;98.90;18.00;101087.00;;;;4989063;27;107075;-65
2023/09/30 01:40:48;;;;;;;0.82;0.50;;;17.90;98.90;18.00;101090.00;;;;4990247;27;101663;-66
2023/09/30 01:43:15;;;;;;;0.30;0.30;;;17.80;98.90;17.90;101094.00;;;;4985902;28;89715;-65
2023/09/30 01:45:40;;;;;;;0.95;0.57;;;17.80;98.80;17.90;101107.00;;;;4989098;28;87834;-65
2023/09/30 01:48:07;;;;;;;2.17;0.63;;;17.80;98.60;17.90;101106.00;;;;4989898;28;95890;-66
2023/09/30 01:50:32;;;;;;;0.52;0.52;;;17.80;98.40;17.90;101109.00;;;;4990853;28;88831;-64
2023/09/30 01:52:58;;;;;;;1.10;0.63;;;17.70;98.20;17.80;101120.00;;;;4990034;28;115507;-66
2023/09/30 01:55:24;;;;;;;0.55;0.38;;;17.70;98.00;17.80;101122.00;;;;4988780;28;110839;-66
2023/09/30 01:57:49;;;;;;;4.28;1.33;;;17.70;97.70;17.80;101123.00;;;;4978918;28;107043;-66
2023/09/30 02:00:17;;;;;;;0.45;0.40;;;17.70;97.40;17.80;101123.00;;;;4990820;28;116988;-66
2023/09/30 02:02:44;;;;;;;2.15;0.60;;;17.70;97.30;17.80;101118.00;;;;4987813;28;88840;-66
2023/09/30 02:05:09;;;;;;;0.20;0.20;;;17.60;97.10;17.80;101124.00;;;;4991725;28;87120;-65
2023/09/30 02:07:50;;;;;;;1.50;0.65;;;17.60;96.90;17.70;101126.00;;;;4989085;28;87985;-67
2023/09/30 02:10:18;;;;;;;2.33;0.68;;;17.60;96.70;17.70;101126.00;;;;4988379;28;117956;-67
2023/09/30 02:12:45;;;;;;;0.60;0.60;;;17.60;96.50;17.70;101136.00;;;;4986918;28;109230;-66
2023/09/30 02:15:12;;;;;;;1.15;0.93;;;17.60;96.50;17.70;101150.00;;;;4987603;28;99462;-66
2023/09/30 02:17:37;;;;;;;3.28;1.75;;;17.60;96.30;17.70;101155.00;;;;4989715;28;98779;-67
2023/09/30 02:20:12;;;;;;;2.20;0.68;;;17.60;96.20;17.60;101143.00;;;;4982747;28;117741;-67
2023/09/30 02:22:38;;;;;;;2.60;0.43;;;17.50;95.90;17.60;101147.00;;;;4989989;28;89636;-66
2023/09/30 02:25:07;;;;;;;3.08;0.98;;;17.50;95.70;17.60;101145.00;;;;4990778;28;99701;-66
2023/09/30 02:27:33;;;;;;;0.70;0.65;;;17.50;95.70;17.60;101157.00;;;;4994240;28;87777;-67
2023/09/30 02:29:59;;;;;;;2.80;1.02;;;17.50;95.60;17.50;101170.00;;;;4994807;28;88082;-65
2023/09/30 02:32:25;;;;;;;2.20;0.70;;;17.40;95.50;17.50;101167.00;;;;4991244;28;88135;-66
2023/09/30 02:34:51;;;;;;;2.92;0.52;;;17.40;95.50;17.50;101170.00;;;;4986103;28;111370;-66
2023/09/30 02:37:18;;;;;;;0.70;0.70;;;17.40;95.40;17.50;101179.00;;;;4987629;28;89260;-66
2023/09/30 02:39:44;;;;;;;0.88;0.88;;;17.40;95.40;17.50;101183.00;;;;4993665;28;88162;-66
2023/09/30 02:42:10;;;;;;;2.35;0.50;;;17.40;95.40;17.50;101185.00;;;;4989111;28;88533;-67
2023/09/30 02:44:36;;;;;;;1.77;0.98;;;17.40;95.40;17.40;101178.00;;;;4987516;28;88022;-65
2023/09/30 02:47:01;;;;;;;0.82;0.45;;;17.40;95.50;17.40;101187.00;;;;4988385;28;87848;-66
2023/09/30 02:49:27;;;;;;;1.73;1.17;;;17.50;95.70;17.40;101200.00;;;;4985911;28;88022;-66
2023/09/30 02:51:53;;;;;;;2.08;0.65;;;17.30;95.80;17.40;101207.00;;;;4991522;27;116857;-67
2023/09/30 02:54:18;;;;;;;0.73;0.73;;;17.30;95.90;17.40;101210.00;;;;4989586;28;110037;-66
2023/09/30 02:56:46;;;;;;;4.28;1.08;;;17.30;96.20;17.30;101214.00;;;;4988390;28;107711;-66
2023/09/30 02:59:13;;;;;;;2.80;0.90;;;17.30;96.30;17.30;101235.00;;;;4991685;28;88939;-66
2023/09/30 03:01:39;;;;;;;0.90;0.70;;;17.20;96.60;17.30;101225.00;;;;4987107;28;88788;-66
2023/09/30 03:04:06;;;;;;;1.42;1.05;;;17.20;96.40;17.20;101229.00;;;;4985332;28;111268;-65
2023/09/30 03:06:36;;;;;;;4.90;1.08;;;17.10;96.40;17.20;101230.00;;;;4992502;28;88356;-66
2023/09/30 03:09:04;;;;;;;1.15;0.77;;;17.10;96.40;17.10;101230.00;;;;4992091;27;88632;-66
2023/09/30 03:11:31;;;;;;;2.17;0.85;;;17.10;96.40;17.10;101227.00;;;;4987380;28;88793;-67
2023/09/30 03:13:57;;;;;;;1.55;1.45;;;17.00;96.40;17.00;101237.00;;;;4990605;28;87816;-67
2023/09/30 03:16:24;;;;;;;0.52;0.52;;;17.00;96.40;17.00;101240.00;;;;4986597;28;88061;-66
2023/09/30 03:18:53;;;;;;;2.28;0.77;;;16.90;96.30;16.90;101250.00;;;;4988923;28;87360;-66
2023/09/30 03:21:19;;;;;;;1.23;1.13;;;16.90;96.20;16.80;101254.00;;;;4990816;28;88110;-66
2023/09/30 03:23:45;;;;;;;2.70;1.20;;;16.80;96.00;16.80;101257.00;;;;4976526;28;88274;-67
2023/09/30 03:26:11;;;;;;;1.33;1.05;;;16.70;95.70;16.70;101251.00;;;;4985782;28;89044;-65
2023/09/30 03:28:38;;;;;;;0.95;0.82;;;16.70;95.50;16.60;101262.00;;;;4987397;28;89576;-65
2023/09/30 03:31:04;;;;;;;1.88;1.02;;;16.60;95.40;16.60;101264.00;;;;4988420;28;88077;-65
2023/09/30 03:33:32;;;;;;;0.77;0.77;;;16.50;95.20;16.50;101279.00;;;;4986964;28;95631;-66
2023/09/30 03:35:58;;;;;;;3.00;1.00;;;16.50;95.20;16.40;101287.00;;;;4991413;28;88057;-67
2023/09/30 03:38:25;;;;;;;4.32;1.52;;;16.40;95.10;16.30;101294.00;;;;4988003;28;87989;-65
2023/09/30 03:40:53;;;;;;;2.13;1.13;;;16.30;95.10;16.30;101299.00;;;;4990241;28;88048;-66
2023/09/30 03:43:20;;;;;;;2.15;1.38;;;16.20;95.10;16.20;101302.00;;;;4987504;28;87895;-65
2023/09/30 03:45:46;;;;;;;2.00;0.95;;;16.20;95.20;16.10;101305.00;;;;4986998;28;87777;-67
2023/09/30 03:48:12;;;;;;;3.22;0.75;;;16.10;95.20;16.00;101308.00;;;;4968706;27;87845;-64
2023/09/30 03:50:38;;;;;;;2.63;1.08;;;16.00;95.20;15.90;101308.00;;;;4985137;27;116404;-66
2023/09/30 03:53:05;;;;;;;5.00;1.23;;;15.90;95.20;15.90;101316.00;;;;4989358;28;111242;-65
2023/09/30 03:55:31;;;;;;;1.67;1.15;;;15.90;95.30;15.80;101318.00;;;;4990298;27;87721;-66
2023/09/30 03:57:57;;;;;;;3.10;1.20;;;15.80;95.40;15.70;101317.00;;;;4980026;28;87837;-65
2023/09/30 04:00:24;;;;;;;2.33;1.35;;;15.70;95.50;15.60;101319.00;;;;4973874;28;104812;-66
2023/09/30 04:02:54;;;;;;;2.13;1.42;;;15.60;95.60;15.50;101326.00;;;;4993121;28;87868;-66
2023/09/30 04:05:26;;;;;;;1.75;1.30;;;15.60;95.70;15.50;101328.00;;;;4982713;28;88051;-65
2023/09/30 04:07:51;;;;;;;1.80;0.98;;;15.40;95.80;15.40;101319.00;;;;4995627;28;87670;-65
2023/09/30 04:10:17;;;;;;;1.77;1.05;;;15.50;95.90;15.30;101325.00;;;;4990125;28;116043;-65
2023/09/30 04:12:43;;;;;;;1.27;1.17;;;15.30;96.10;15.20;101323.00;;;;4991074;28;88094;-66
2023/09/30 04:15:12;;;;;;;2.03;1.35;;;15.20;96.20;15.10;101326.00;;;;4989530;28;110175;-66
2023/09/30 04:17:38;;;;;;;2.40;1.23;;;15.10;96.40;15.00;101330.00;;;;4991560;28;89549;-67
2023/09/30 04:20:15;;;;;;;2.47;1.70;;;15.00;96.50;14.90;101334.00;;;;4994218;28;89816;-66
2023/09/30 04:22:51;;;;;;;0.88;0.65;;;15.00;96.70;14.80;101334.00;;;;4990303;28;87775;-67
2023/09/30 04:25:18;;;;;;;0.68;0.68;;;14.80;96.90;14.70;101338.00;;;;4991917;27;87774;-67
2023/09/30 04:27:44;;;;;;;5.88;1.52;;;14.80;97.10;14.70;101346.00;;;;4990645;27;88587;-66
2023/09/30 04:30:10;;;;;;;4.57;1.52;;;14.70;97.30;14.60;101346.00;;;;4991228;28;88565;-65
2023/09/30 04:32:38;;;;;;;1.60;0.85;;;14.60;97.40;14.50;101346.00;;;;4991469;28;88072;-65
2023/09/30 04:35:05;;;;;;;0.63;0.60;;;14.50;97.60;14.50;101352.00;;;;4990596;28;87808;-67
2023/09/30 04:37:30;;;;;;;3.90;0.95;;;14.50;97.80;14.40;101351.00;;;;4977167;28;96458;-65
2023/09/30 04:39:58;;;;;;;1.40;1.00;;;14.40;98.00;14.40;101357.00;;;;4972037;28;88699;-65
2023/09/30 04:42:25;;;;;;;2.72;1.70;;;14.40;98.20;14.40;101357.00;;;;4993497;28;87731;-65
2023/09/30 04:44:52;;;;;;;1.35;1.05;;;14.40;98.40;14.40;101361.00;;;;4993179;28;88032;-65
2023/09/30 04:47:18;;;;;;;2.92;1.58;;;14.40;98.50;14.30;101369.00;;;;4988260;28;109666;-65
2023/09/30 04:49:47;;;;;;;1.10;0.95;;;14.30;98.60;14.30;101371.00;;;;4992920;27;88785;-65
2023/09/30 04:52:12;;;;;;;1.30;0.60;;;14.30;98.90;14.20;101359.00;;;;4990938;28;108905;-64
2023/09/30 04:54:38;;;;;;;1.65;0.90;;;14.20;99.10;14.10;101374.00;;;;4991889;28;108542;-66
2023/09/30 04:57:05;;;;;;;3.65;1.10;;;14.10;99.30;14.10;101385.00;;;;4976400;28;116498;-65
2023/09/30 04:59:30;;;;;;;3.65;1.25;;;14.10;99.60;14.00;101382.00;;;;4990689;28;87736;-65
2023/09/30 05:01:56;;;;;;;5.80;1.17;;;13.80;99.90;13.90;101390.00;;;;4976800;28;103050;-65
2023/09/30 05:04:23;;;;;;;1.63;1.53;;;14.00;99.90;13.90;101383.00;;;;4989853;28;107602;-66
2023/09/30 05:06:50;;;;;;;2.30;1.50;;;13.90;99.90;13.80;101391.00;;;;4994099;27;89063;-66
2023/09/30 05:09:15;;;;;;;2.23;1.07;;;13.80;99.90;13.80;101401.00;;;;4989491;28;88774;-66
2023/09/30 05:11:41;;;;;;;3.45;1.08;;;13.80;99.90;13.70;101398.00;;;;4993584;28;97994;-67
2023/09/30 05:14:07;;;;;;;8.73;1.35;;;13.80;99.90;13.70;101408.00;;;;4992246;28;101969;-66
2023/09/30 05:16:32;;;;;;;1.73;0.97;;;13.70;99.90;13.70;101423.00;;;;4989577;28;87987;-67
2023/09/30 05:18:58;;;;;;;1.33;0.80;;;13.70;99.90;13.70;101419.00;;;;4989686;27;88019;-66
2023/09/30 05:21:24;;;;;;;4.50;1.37;;;13.70;99.90;13.60;101414.00;;;;4985334;27;87347;-66
2023/09/30 05:23:50;;;;;;;3.33;1.33;;;13.60;99.90;13.60;101413.00;;;;4985162;28;87737;-64
2023/09/30 05:26:16;;;;;;;1.27;1.13;;;13.60;99.90;13.60;101407.00;;;;4980895;28;118674;-66
2023/09/30 05:28:42;;;;;;;1.63;1.47;;;13.80;99.90;13.60;101399.00;;;;4983512;27;88858;-66
2023/09/30 05:31:08;;;;;;;1.33;1.07;;;13.60;99.90;13.60;101395.00;;;;4984567;27;88778;-66
2023/09/30 05:33:37;;;;;;;2.37;0.83;;;13.60;99.90;13.60;101389.00;;;;4988305;27;94639;-66
2023/09/30 05:36:06;;;;;;;1.77;1.03;;;13.60;99.90;13.70;101390.00;;;;4986161;28;89512;-67
2023/09/30 05:38:32;;;;;;;2.00;1.30;;;13.60;99.90;13.70;101384.00;;;;4986635;27;88875;-65
2023/09/30 05:40:58;;;;;;;5.40;1.27;;;13.70;99.90;13.80;101391.00;;;;4984876;27;88155;-66
2023/09/30 05:43:25;;;;;;;1.15;0.77;;;13.70;99.90;13.90;101384.00;;;;4988408;28;88039;-66
2023/09/30 05:45:54;;;;;;;3.27;1.70;;;13.80;99.90;13.90;101385.00;;;;4981814;27;88094;-65
2023/09/30 05:48:21;;;;;;;3.97;1.48;;;13.90;99.90;14.00;101386.00;;;;4985296;27;88908;-66
2023/09/30 05:50:47;;;;;;;2.87;1.20;;;13.90;99.90;14.10;101386.00;;;;4987274;28;100514;-66
2023/09/30 05:53:13;;;;;;;4.63;1.80;;;14.00;99.90;14.20;101392.00;;;;4983298;28;89164;-66
2023/09/30 05:55:43;;;;;;;2.35;1.50;;;14.10;99.90;14.30;101399.00;;;;4987076;28;89034;-66
2023/09/30 05:58:10;;;;;;;6.10;1.73;;;14.20;99.90;14.40;101396.00;;;;4989021;28;87974;-66
2023/09/30 06:00:35;;;;;;;3.42;1.20;;;14.30;99.90;14.50;101394.00;;;;4989485;27;88087;-66
2023/09/30 06:03:06;;;;;;;3.75;1.58;;;14.40;99.90;14.60;101413.00;;;;4984546;28;109743;-65
2023/09/30 06:05:32;;;;;;;2.47;0.88;;;14.50;99.90;14.70;101410.00;;;;4986984;28;89161;-66
2023/09/30 06:08:02;;;;;;;3.67;1.38;;;14.60;99.90;14.80;101426.00;;;;4993352;28;87783;-66
2023/09/30 06:10:28;;;;;;;1.75;1.02;;;14.70;99.90;14.90;101428.00;;;;4988052;28;87127;-67
2023/09/30 06:12:54;;;;;;;3.60;1.65;;;14.80;99.90;15.00;101428.00;;;;4990241;28;87845;-67
2023/09/30 06:15:25;;;;;;;4.07;1.13;;;14.80;99.90;15.00;101438.00;;;;4983561;27;119137;-66
2023/09/30 06:17:52;;;;;;;4.60;1.30;;;14.90;99.90;15.00;101447.00;;;;4986058;28;88978;-66
2023/09/30 06:20:20;;;;;;;7.88;1.08;;;14.90;99.90;15.00;101450.00;;;;4988553;28;87939;-67
2023/09/30 06:22:51;;;;;;;1.30;1.05;;;15.00;99.90;15.10;101444.00;;;;4986376;28;88162;-65
2023/09/30 06:25:17;;;;;;;1.85;1.30;;;15.00;99.90;15.10;101446.00;;;;4985144;27;89570;-66
2023/09/30 06:27:47;;;;;;;3.20;1.92;;;15.00;99.90;15.10;101464.00;;;;4986921;28;88182;-67
2023/09/30 06:30:16;;;;;;;3.90;1.27;;;15.10;99.90;15.10;101468.00;;;;4993611;28;87686;-66
2023/09/30 06:32:43;;;;;;;0.70;0.70;;;15.10;99.90;15.20;101478.00;;;;4987293;28;94461;-66
2023/09/30 06:35:12;;;;;;;1.60;1.40;;;15.10;99.90;15.10;101489.00;;;;4991228;28;88287;-67
2023/09/30 06:37:39;;;;;;;1.85;1.65;;;15.10;99.90;15.10;101486.00;;;;4984899;28;87772;-66
2023/09/30 06:40:12;;;;;;;2.78;1.27;;;15.10;99.90;15.10;101494.00;;;;4979800;28;87862;-65
2023/09/30 06:42:39;;;;;;;1.70;1.13;;;15.10;99.90;15.20;101499.00;;;;4984209;28;89337;-66
2023/09/30 06:45:06;;;;;;;3.50;1.48;;;15.10;99.90;15.20;101510.00;;;;4984441;28;88860;-67
2023/09/30 06:47:36;;;;;;;2.42;1.60;;;15.20;99.90;15.20;101502.00;;;;4986366;28;112883;-67
2023/09/30 06:50:07;;;;;;;6.85;1.70;;;15.20;99.90;15.20;101520.00;;;;4981849;28;89090;-66
2023/09/30 06:52:41;;;;;;;5.07;1.92;;;15.20;99.90;15.30;101517.00;;;;4986725;28;88048;-66
2023/09/30 06:55:07;;;;;;;1.25;0.75;;;15.20;99.90;15.40;101515.00;;;;4984167;28;88667;-65
2023/09/30 06:57:37;;;;;;;2.92;1.60;;;15.30;99.90;15.50;101529.00;;;;4988438;28;97050;-65
2023/09/30 07:00:11;;;;;;;2.00;1.38;;;15.40;99.90;15.60;101511.00;;;;4988707;28;95155;-66
2023/09/30 07:02:38;;;;;;;1.65;1.02;;;15.50;99.90;15.80;101516.00;;;;4970911;28;88103;-66
2023/09/30 07:05:12;;;;;;;1.90;1.27;;;15.60;99.90;16.00;101510.00;;;;4983332;28;88887;-67
2023/09/30 07:07:39;;;;;;;2.35;1.70;;;15.90;99.90;16.30;101521.00;;;;4980549;28;108392;-65
2023/09/30 07:10:08;;;;;;;2.60;1.52;;;16.10;99.90;16.70;101529.00;;;;4980812;28;87877;-66
2023/09/30 07:12:37;;;;;;;5.25;1.48;;;16.40;99.90;17.00;101525.00;;;;4982896;28;100589;-66
2023/09/30 07:15:05;;;;;;;3.85;1.40;;;16.70;99.90;17.10;101532.00;;;;4984250;28;88192;-65
2023/09/30 07:17:31;;;;;;;2.92;1.48;;;17.00;99.90;17.40;101535.00;;;;4973017;27;87981;-65
2023/09/30 07:19:57;;;;;;;4.35;1.52;;;17.20;99.90;17.50;101539.00;;;;4983493;28;88033;-65
2023/09/30 07:22:23;;;;;;;3.25;1.75;;;17.40;99.90;17.60;101533.00;;;;4983643;28;101311;-65
2023/09/30 07:24:48;;;;;;;4.07;1.63;;;17.40;99.90;17.60;101539.00;;;;4982015;28;117463;-65
2023/09/30 07:27:14;;;;;;;3.28;1.40;;;17.50;99.90;17.50;101549.00;;;;4980706;28;116144;-67
2023/09/30 07:29:40;;;;;;;2.63;1.35;;;17.50;99.80;17.40;101540.00;;;;4981423;28;109107;-65
2023/09/30 07:32:07;;;;;;;1.67;1.25;;;17.40;99.70;17.40;101547.00;;;;4986633;28;98964;-65
2023/09/30 07:34:33;;;;;;;8.50;2.00;;;17.30;99.80;17.50;101548.00;;;;4986561;28;88724;-65
2023/09/30 07:36:59;;;;;;;2.67;1.50;;;17.40;99.80;17.70;101541.00;;;;4969381;28;117129;-65
2023/09/30 07:39:24;;;;;;;2.05;1.30;;;17.60;99.70;18.00;101538.00;;;;4985752;28;87960;-65
2023/09/30 07:41:50;;;;;;;3.47;1.30;;;17.80;99.40;18.20;101548.00;;;;4985728;28;88081;-64
2023/09/30 07:44:16;;;;;;;2.10;1.35;;;18.00;99.00;18.30;101537.00;;;;4986297;27;117227;-65
2023/09/30 07:46:43;;;;;;;2.30;1.60;;;18.20;98.50;18.40;101534.00;;;;4987117;28;99065;-65
2023/09/30 07:49:10;;;;;;;3.78;1.00;;;18.20;98.10;18.50;101535.00;;;;4989903;28;87115;-66
2023/09/30 07:51:36;;;;;;;1.98;1.40;;;18.30;97.70;18.60;101529.00;;;;4991772;28;87638;-66
2023/09/30 07:54:03;;;;;;;3.70;1.98;;;18.40;97.60;18.80;101529.00;;;;4986547;28;117586;-66
2023/09/30 07:56:29;;;;;;;4.22;1.30;;;18.60;97.50;19.10;101541.00;;;;4987782;27;88859;-66
2023/09/30 07:58:54;;;;;;;1.67;0.80;;;18.80;97.20;19.30;101538.00;;;;4988295;28;88062;-67
2023/09/30 08:01:21;;;;;;;2.38;1.27;;;19.10;96.80;19.50;101541.00;;;;4985313;28;108191;-65
2023/09/30 08:03:47;;;;;;;3.55;1.45;;;19.30;96.30;19.70;101547.00;;;;4988740;28;88345;-67
2023/09/30 08:06:13;;;;;;;3.00;1.20;;;19.50;95.20;19.70;101551.00;;;;4985924;28;109294;-66
2023/09/30 08:08:39;;;;;;;2.00;1.27;;;19.60;94.90;19.80;101547.00;;;;4985609;28;89493;-66
2023/09/30 08:11:06;;;;;;;3.85;1.20;;;19.60;94.40;19.90;101548.00;;;;4989012;28;87937;-65
2023/09/30 08:13:32;;;;;;;2.97;1.50;;;19.70;94.10;19.90;101548.00;;;;4983083;28;88926;-66
2023/09/30 08:16:01;;;;;;;2.17;1.50;;;19.80;93.60;20.00;101548.00;;;;4987261;28;88192;-66
2023/09/30 08:18:27;;;;;;;3.58;1.27;;;19.80;93.50;20.00;101550.00;;;;4986445;28;87826;-65
2023/09/30 08:20:52;;;;;;;3.63;1.00;;;19.90;92.70;19.90;101555.00;;;;4991338;27;107822;-66
2023/09/30 08:23:18;;;;;;;3.47;0.93;;;19.80;92.30;19.80;101559.00;;;;4989138;28;99082;-66
2023/09/30 08:25:44;;;;;;;3.88;2.13;;;19.70;92.30;19.80;101553.00;;;;4989756;27;117240;-66
2023/09/30 08:28:10;;;;;;;2.25;1.27;;;19.70;92.40;19.80;101562.00;;;;4989151;28;89039;-65
2023/09/30 08:30:37;;;;;;;2.38;1.02;;;19.70;92.50;19.90;101548.00;;;;4987653;27;98341;-67
2023/09/30 08:33:03;;;;;;;3.20;1.65;;;19.80;92.40;20.00;101564.00;;;;4974385;28;87955;-65
2023/09/30 08:35:38;;;;;;;2.67;1.50;;;19.80;92.30;19.90;101560.00;;;;4987138;27;89041;-66
2023/09/30 08:38:04;;;;;;;3.33;1.63;;;19.80;92.00;19.90;101572.00;;;;4987776;28;87635;-66
2023/09/30 08:40:30;;;;;;;2.50;1.10;;;19.80;91.80;19.80;101560.00;;;;4987691;27;88008;-66
2023/09/30 08:42:57;;;;;;;1.27;1.15;;;19.70;91.40;19.80;101559.00;;;;4986194;27;109164;-66
2023/09/30 08:45:23;;;;;;;5.47;1.45;;;19.60;91.50;19.80;101562.00;;;;4988544;27;95165;-65
2023/09/30 08:47:50;;;;;;;3.22;1.10;;;19.60;91.50;19.70;101554.00;;;;4979047;27;88293;-65
2023/09/30 08:50:16;;;;;;;3.95;0.98;;;19.60;91.30;19.70;101554.00;;;;4972712;28;87994;-65
2023/09/30 08:52:44;;;;;;;3.03;1.40;;;19.60;91.30;19.80;101556.00;;;;4987360;28;101453;-65
2023/09/30 08:55:11;;;;;;;6.50;1.33;;;19.60;91.10;19.80;101563.00;;;;4976469;28;92076;-65
2023/09/30 08:57:41;;;;;;;2.30;1.48;;;19.60;91.00;19.80;101575.00;;;;4967773;28;88070;-66
2023/09/30 09:00:13;;;;;;;4.32;1.38;;;19.70;90.80;19.80;101569.00;;;;4985924;28;94100;-66
2023/09/30 09:02:40;;;;;;;1.90;1.27;;;19.60;90.70;19.70;101578.00;;;;4983577;28;88160;-65
2023/09/30 09:05:07;;;;;;;4.22;1.15;;;19.60;90.60;19.60;101570.00;;;;4985924;28;87868;-66
2023/09/30 09:07:34;;;;;;;1.55;1.42;;;19.50;90.40;19.60;101577.00;;;;4984111;28;88511;-66
2023/09/30 09:10:15;;;;;;;2.55;0.82;;;19.40;90.40;19.50;101578.00;;;;4982973;28;89065;-66
2023/09/30 09:12:42;;;;;;;1.77;0.63;;;19.40;90.70;19.50;101575.00;;;;4986186;28;89023;-65
2023/09/30 09:15:21;;;;;;;3.92;1.50;;;19.40;90.60;19.50;101581.00;;;;4980575;28;88732;-66
2023/09/30 09:17:47;;;;;;;6.65;1.02;;;19.40;90.70;19.50;101588.00;;;;4986924;27;89157;-66
2023/09/30 09:20:22;;;;;;;1.27;1.17;;;19.40;90.60;19.60;101585.00;;;;4984931;27;109087;-65
2023/09/30 09:22:53;;;;;;;0.85;0.85;;;19.40;90.60;19.80;101591.00;;;;4984912;28;88312;-66
2023/09/30 09:25:23;;;;;;;6.38;1.90;;;19.40;90.50;20.00;101587.00;;;;4982555;28;88018;-65
2023/09/30 09:27:53;;;;;;;3.97;1.60;;;19.80;90.40;20.60;101593.00;;;;4987498;27;87300;-66
2023/09/30 09:30:26;;;;;;;4.05;1.40;;;20.20;90.20;21.10;101592.00;;;;4986556;28;88604;-66
2023/09/30 09:33:06;;;;;;;3.28;1.35;;;20.60;89.00;21.50;101595.00;;;;4986049;27;89107;-65
2023/09/30 09:35:34;;;;;;;4.55;1.67;;;21.10;88.00;21.90;101591.00;;;;4986081;27;89192;-65
2023/09/30 09:38:06;;;;;;;2.50;1.38;;;21.60;84.20;22.10;101600.00;;;;4986548;27;88238;-66
2023/09/30 09:40:40;;;;;;;2.72;1.02;;;21.80;82.90;22.60;101594.00;;;;4968481;27;87863;-66
2023/09/30 09:43:06;;;;;;;4.43;2.25;;;22.20;83.10;22.90;101593.00;;;;4974618;28;87794;-66
2023/09/30 09:45:35;;;;;;;1.73;1.33;;;22.60;79.70;23.10;101594.00;;;;4987730;27;101093;-66
2023/09/30 09:48:01;;;;;;;3.20;1.00;;;22.80;77.10;23.20;101589.00;;;;4973958;28;88016;-66
2023/09/30 09:50:27;;;;;;;0.93;0.85;;;23.00;76.90;23.40;101592.00;;;;4973825;28;89088;-67
2023/09/30 09:52:55;;;;;;;2.15;1.52;;;23.10;76.00;23.70;101587.00;;;;4984317;28;114167;-66
2023/09/30 09:55:26;;;;;;;7.30;1.20;;;23.40;75.40;24.10;101584.00;;;;4985436;27;88353;-67
2023/09/30 09:57:52;;;;;;;3.65;1.30;;;23.70;73.80;24.30;101592.00;;;;4983847;27;87966;-67
2023/09/30 10:00:25;;;;;;;3.20;1.25;;;23.90;72.10;24.50;101596.00;;;;4971132;28;89023;-67
2023/09/30 10:02:51;;;;;;;4.05;1.35;;;24.20;71.00;24.80;101593.00;;;;4980335;27;109507;-66
2023/09/30 10:05:21;;;;;;;3.03;0.90;;;24.40;70.50;25.10;101591.00;;;;4984580;27;88508;-66
2023/09/30 10:08:03;;;;;;;2.13;1.45;;;24.60;68.90;25.30;101591.00;;;;4984012;28;87921;-66
2023/09/30 10:10:29;;;;;;;0.77;0.75;;;24.90;67.80;25.50;101589.00;;;;4973767;28;88342;-65
2023/09/30 10:12:54;;;;;;;4.38;1.05;;;25.10;66.00;25.70;101588.00;;;;4982508;28;89250;-67
2023/09/30 10:15:26;;;;;;;4.00;1.42;;;25.30;65.00;25.80;101599.00;;;;4983580;28;116780;-66
2023/09/30 10:18:12;;;;;;;0.43;0.43;;;25.40;63.80;26.10;101596.00;;;;4983888;28;87050;-66
2023/09/30 10:20:47;;;;;;;2.55;0.82;;;25.70;63.80;26.40;101592.00;;;;4987444;27;87960;-65
2023/09/30 10:23:24;;;;;;;2.50;0.77;;;25.90;62.30;26.60;101597.00;;;;4988162;28;88950;-68
2023/09/30 10:25:55;;;;;;;5.88;0.90;;;26.20;60.40;26.60;101595.00;;;;4987067;28;89931;-66
2023/09/30 10:28:49;;;;;;;3.97;1.05;;;26.30;59.00;26.60;101592.00;;;;4986843;28;87957;-65
2023/09/30 10:31:24;;;;;;;1.67;0.73;;;26.30;57.70;26.40;101585.00;;;;4981495;28;87667;-67
2023/09/30 10:34:02;;;;;;;0.90;0.82;;;26.10;56.70;26.50;101591.00;;;;4984103;28;88448;-67
2023/09/30 10:36:34;;;;;;;0.98;0.70;;;26.20;56.60;26.60;101593.00;;;;4985350;28;87753;-65
2023/09/30 10:39:00;;;;;;;5.55;1.40;;;26.20;56.10;26.60;101587.00;;;;4969608;28;88133;-68
2023/09/30 10:41:44;;;;;;;13.10;1.30;;;26.30;55.20;26.60;101581.00;;;;4987833;28;96549;-67
2023/09/30 10:44:22;;;;;;;0.45;0.30;;;26.30;54.70;26.60;101577.00;;;;4986806;27;88400;-68
2023/09/30 10:46:49;;;;;;;4.03;0.88;;;26.20;54.90;26.80;101591.00;;;;4985420;28;89180;-68